D/T METAR WX W/DIR W/SPE G/SPE TEMP DEWP
16/01/19 04:20 EGLL 160420Z AUTO 22012KT 9999 BKN012 09/07 Q1009 SW (220°) 13.8mph 9°C 7°C
16/01/19 03:50 EGLL 160350Z AUTO 22011KT 9999 BKN013 09/07 Q1010 NOSIG SW (220°) 12.7mph 9°C 7°C
16/01/19 03:20 EGLL 160320Z AUTO 22013KT 9999 SCT015 BKN032 09/07 Q1010 TEMPO BKN012 SW (220°) 15.0mph 9°C 7°C
16/01/19 02:50 EGLL 160250Z AUTO 22010KT 9999 BKN011 08/07 Q1011 NOSIG SW (220°) 11.5mph 8°C 7°C
16/01/19 02:20 EGLL 160220Z AUTO 23013KT 9999 BKN012 BKN017 09/07 Q1011 SW (230°) 15.0mph 9°C 7°C
16/01/19 01:50 EGLL 160150Z AUTO 23012KT 9999 SCT015 09/06 Q1012 TEMPO BKN014 SW (230°) 13.8mph 9°C 6°C
16/01/19 01:20 EGLL 160120Z AUTO 22009KT 9999 SCT035 09/06 Q1012 NOSIG SW (220°) 10.4mph 9°C 6°C
16/01/19 00:50 EGLL 160050Z AUTO 21009KT 9999 BKN033 09/06 Q1012 NOSIG SSW (210°) 10.4mph 9°C 6°C
16/01/19 00:20 EGLL 160020Z AUTO 20008KT 9999 OVC033 08/06 Q1013 SSW (200°) 9.2mph 8°C 6°C
15/01/19 23:50 EGLL 152350Z AUTO 21008KT 9999 BKN032 08/06 Q1013 NOSIG SSW (210°) 9.2mph 8°C 6°C
15/01/19 23:20 EGLL 152320Z AUTO 21010KT 9999 BKN031 08/06 Q1014 NOSIG SSW (210°) 11.5mph 8°C 6°C
15/01/19 22:50 EGLL 152250Z AUTO 21010KT 9999 OVC032 08/05 Q1014 NOSIG SSW (210°) 11.5mph 8°C 5°C
15/01/19 22:20 EGLL 152220Z AUTO 22011KT 9999 OVC029 08/05 Q1015 NOSIG SW (220°) 12.7mph 8°C 5°C
15/01/19 21:50 EGLL 152150Z AUTO 23011KT 9999 OVC028 09/05 Q1015 NOSIG SW (230°) 12.7mph 9°C 5°C
15/01/19 21:20 EGLL 152120Z AUTO 22010KT 9999 OVC028 09/05 Q1015 NOSIG SW (220°) 11.5mph 9°C 5°C
15/01/19 20:50 EGLL 152050Z AUTO 22010KT 9999 OVC030 09/05 Q1015 NOSIG SW (220°) 11.5mph 9°C 5°C
15/01/19 19:50 EGLL 151950Z AUTO 22012KT 9999 OVC030 09/05 Q1016 SW (220°) 13.8mph 9°C 5°C
15/01/19 19:20 EGLL 151920Z AUTO 23012KT 9999 OVC030 09/05 Q1016 NOSIG SW (230°) 13.8mph 9°C 5°C
15/01/19 18:50 EGLL 151850Z AUTO 23011KT 9999 OVC032 09/05 Q1016 SW (230°) 12.7mph 9°C 5°C
15/01/19 18:20 EGLL 151820Z AUTO 23009KT 9999 OVC032 09/05 Q1016 NOSIG SW (230°) 10.4mph 9°C 5°C
15/01/19 17:50 EGLL 151750Z AUTO 23010KT 9999 FEW024 OVC031 09/05 Q1017 SW (230°) 11.5mph 9°C 5°C
15/01/19 17:20 EGLL 151720Z AUTO 23010KT 9999 SCT021 OVC029 09/05 Q1017 SW (230°) 11.5mph 9°C 5°C
15/01/19 16:50 EGLL 151650Z AUTO 23009KT 9999 FEW023 BKN030 OVC039 09/06 Q1017 NOSIG SW (230°) 10.4mph 9°C 6°C
15/01/19 16:20 EGLL 151620Z AUTO 23009KT 9999 SCT019 BKN025 BKN033 09/06 Q1017 NOSIG SW (230°) 10.4mph 9°C 6°C
15/01/19 15:50 EGLL 151550Z AUTO 23008KT 9999 SCT016 SCT024 OVC030 09/06 Q1018 SW (230°) 9.2mph 9°C 6°C
15/01/19 15:20 EGLL 151520Z 25010KT 9999 BKN015 BKN020 OVC037 09/06 Q1018 WSW (250°) 11.5mph 9°C 6°C
15/01/19 14:50 EGLL 151450Z AUTO 26012KT 9999 BKN015 OVC037 10/06 Q1018 NOSIG W (260°) 13.8mph 10°C 6°C
15/01/19 13:50 EGLL 151350Z AUTO 24011KT 9999 SCT017 BKN027 OVC031 09/06 Q1018 WSW (240°) 12.7mph 9°C 6°C
15/01/19 13:20 EGLL 151320Z AUTO 26014KT 9999 BKN016 OVC026 09/06 Q1019 NOSIG W (260°) 16.1mph 9°C 6°C
15/01/19 12:20 EGLL 151220Z AUTO 25012KT 9999 FEW018 OVC035 09/06 Q1019 WSW (250°) 13.8mph 9°C 6°C
15/01/19 11:50 EGLL 151150Z AUTO 25013KT 9999 FEW019 OVC033 09/05 Q1020 NOSIG WSW (250°) 15.0mph 9°C 5°C
15/01/19 11:20 EGLL 151120Z AUTO 24010KT 9999 OVC037 08/05 Q1020 NOSIG WSW (240°) 11.5mph 8°C 5°C
15/01/19 10:50 EGLL 151050Z AUTO 24010KT 9999 OVC035 08/05 Q1020 WSW (240°) 11.5mph 8°C 5°C
15/01/19 10:20 EGLL 151020Z AUTO 24009KT 9999 OVC034 07/05 Q1021 NOSIG WSW (240°) 10.4mph 7°C 5°C
15/01/19 09:50 EGLL 150950Z AUTO 22009KT 9999 OVC033 07/04 Q1021 NOSIG SW (220°) 10.4mph 7°C 4°C
15/01/19 09:20 EGLL 150920Z AUTO 23009KT 9999 OVC033 07/04 Q1021 NOSIG SW (230°) 10.4mph 7°C 4°C
15/01/19 08:50 EGLL 150850Z AUTO 23009KT 9999 OVC033 06/04 Q1021 SW (230°) 10.4mph 6°C 4°C
15/01/19 08:20 EGLL 150820Z AUTO 22007KT 9999 OVC027 06/03 Q1021 SW (220°) 8.1mph 6°C 3°C
15/01/19 07:50 EGLL 150750Z AUTO 22005KT 9999 OVC029 05/03 Q1021 NOSIG SW (220°) 5.8mph 5°C 3°C
15/01/19 07:20 EGLL 150720Z AUTO 22006KT 9999 BKN028 OVC033 05/03 Q1021 NOSIG SW (220°) 6.9mph 5°C 3°C
15/01/19 06:50 EGLL 150650Z AUTO 23006KT 180V250 9999 OVC028 04/03 Q1021 NOSIG SW (230°) 6.9mph 4°C 3°C
15/01/19 06:20 EGLL 150620Z AUTO 23006KT 9999 OVC029 04/02 Q1021 NOSIG SW (230°) 6.9mph 4°C 2°C
15/01/19 05:50 EGLL 150550Z AUTO 22005KT 9999 BKN030 04/02 Q1021 NOSIG SW (220°) 5.8mph 4°C 2°C
15/01/19 05:20 EGLL 150520Z AUTO 21005KT 180V270 9999 NCD 03/01 Q1021 NOSIG SSW (210°) 5.8mph 3°C 1°C
15/01/19 04:50 EGLL 150450Z AUTO 22006KT 9999 SCT041 04/01 Q1021 NOSIG SW (220°) 6.9mph 4°C 1°C
15/01/19 04:20 EGLL 150420Z AUTO 25007KT 9999 OVC036 04/02 Q1022 NOSIG WSW (250°) 8.1mph 4°C 2°C
15/01/19 03:50 EGLL 150350Z AUTO 25006KT 9999 BKN037 03/01 Q1022 NOSIG WSW (250°) 6.9mph 3°C 1°C
15/01/19 03:20 EGLL 150320Z AUTO 26006KT 9999 NCD 04/01 Q1022 NOSIG W (260°) 6.9mph 4°C 1°C
15/01/19 02:50 EGLL 150250Z AUTO 26006KT 9999 NCD 02/01 Q1022 NOSIG W (260°) 6.9mph 2°C 1°C
15/01/19 02:20 EGLL 150220Z AUTO 26005KT 9999 NCD 03/01 Q1022 NOSIG W (260°) 5.8mph 3°C 1°C
15/01/19 01:50 EGLL 150150Z AUTO 27008KT 9999 NCD 02/01 Q1023 NOSIG W (270°) 9.2mph 2°C 1°C
15/01/19 01:20 EGLL 150120Z AUTO 27008KT 9999 NCD 03/01 Q1023 NOSIG W (270°) 9.2mph 3°C 1°C
15/01/19 00:50 EGLL 150050Z AUTO 28008KT 9999 NCD 04/01 Q1023 NOSIG W (280°) 9.2mph 4°C 1°C
15/01/19 00:20 EGLL 150020Z AUTO 27008KT 9999 NCD 04/01 Q1023 NOSIG W (270°) 9.2mph 4°C 1°C
14/01/19 23:50 EGLL 142350Z AUTO 27008KT 9999 NCD 03/01 Q1023 NOSIG W (270°) 9.2mph 3°C 1°C
14/01/19 23:20 EGLL 142320Z AUTO 27008KT 9999 NCD 05/02 Q1023 NOSIG W (270°) 9.2mph 5°C 2°C
14/01/19 22:50 EGLL 142250Z AUTO 27005KT 9999 NCD 05/01 Q1023 W (270°) 5.8mph 5°C 1°C
14/01/19 21:50 EGLL 142150Z AUTO 27008KT 9999 SCT046 05/02 Q1023 NOSIG W (270°) 9.2mph 5°C 2°C
14/01/19 20:50 EGLL 142050Z AUTO 27007KT 9999 BKN048 07/01 Q1023 NOSIG W (270°) 8.1mph 7°C 1°C
14/01/19 20:20 EGLL 142020Z AUTO 27008KT 9999 NCD 07/02 Q1023 NOSIG W (270°) 9.2mph 7°C 2°C
14/01/19 19:50 EGLL 141950Z AUTO 27007KT 9999 NCD 08/02 Q1023 NOSIG W (270°) 8.1mph 8°C 2°C
14/01/19 19:20 EGLL 141920Z AUTO 27006KT 9999 OVC048 08/02 Q1023 NOSIG W (270°) 6.9mph 8°C 2°C
14/01/19 18:50 EGLL 141850Z AUTO 28006KT 9999 NCD 08/03 Q1023 NOSIG W (280°) 6.9mph 8°C 3°C
14/01/19 18:20 EGLL 141820Z AUTO 27007KT 9999 OVC049 08/03 Q1023 NOSIG W (270°) 8.1mph 8°C 3°C
14/01/19 17:50 EGLL 141750Z AUTO 28005KT 9999 OVC049 08/03 Q1023 NOSIG W (280°) 5.8mph 8°C 3°C
14/01/19 17:20 EGLL 141720Z AUTO 30004KT 9999 NCD 09/03 Q1023 NOSIG WNW (300°) 4.6mph 9°C 3°C
14/01/19 16:50 EGLL 141650Z AUTO 30005KT 9999 NCD 09/03 Q1023 NOSIG WNW (300°) 5.8mph 9°C 3°C
14/01/19 16:20 EGLL 141620Z AUTO 30007KT 9999 NCD 09/03 Q1023 NOSIG WNW (300°) 8.1mph 9°C 3°C
14/01/19 15:50 EGLL 141550Z AUTO 30007KT 9999 OVC047 09/03 Q1022 NOSIG WNW (300°) 8.1mph 9°C 3°C
14/01/19 15:20 EGLL 141520Z AUTO 29008KT 9999 OVC045 09/03 Q1022 NOSIG WNW (290°) 9.2mph 9°C 3°C
14/01/19 14:50 EGLL 141450Z AUTO 30009KT 9999 OVC042 09/03 Q1022 NOSIG WNW (300°) 10.4mph 9°C 3°C
14/01/19 14:20 EGLL 141420Z AUTO 29009KT 9999 OVC034 09/03 Q1022 NOSIG WNW (290°) 10.4mph 9°C 3°C
14/01/19 13:50 EGLL 141350Z AUTO 30008KT 9999 SCT031 BKN038 09/03 Q1022 NOSIG WNW (300°) 9.2mph 9°C 3°C
14/01/19 13:20 EGLL 141320Z AUTO 31009KT 280V340 9999 BKN043 10/03 Q1022 NOSIG NW (310°) 10.4mph 10°C 3°C
14/01/19 12:50 EGLL 141250Z AUTO 30008KT 260V330 9999 BKN036 09/03 Q1022 NOSIG WNW (300°) 9.2mph 9°C 3°C
14/01/19 11:50 EGLL 141150Z AUTO 30009KT 9999 BKN042 09/04 Q1021 NOSIG WNW (300°) 10.4mph 9°C 4°C
14/01/19 11:20 EGLL 141120Z AUTO 30010KT 9999 BKN040 BKN047 09/03 Q1021 NOSIG WNW (300°) 11.5mph 9°C 3°C
14/01/19 10:50 EGLL 141050Z AUTO 31010KT 280V340 9999 BKN038 09/03 Q1021 NOSIG NW (310°) 11.5mph 9°C 3°C
14/01/19 10:20 EGLL 141020Z AUTO 30008KT 9999 FEW027 08/04 Q1021 NOSIG WNW (300°) 9.2mph 8°C 4°C
14/01/19 09:50 EGLL 140950Z AUTO 30008KT 9999 FEW029 08/03 Q1021 NOSIG WNW (300°) 9.2mph 8°C 3°C
14/01/19 09:20 EGLL 140920Z AUTO 30008KT 9999 FEW029 08/03 Q1021 NOSIG WNW (300°) 9.2mph 8°C 3°C
14/01/19 08:50 EGLL 140850Z AUTO 29006KT 9999 BKN027 08/03 Q1020 NOSIG WNW (290°) 6.9mph 8°C 3°C
14/01/19 08:20 EGLL 140820Z AUTO 30007KT 9999 BKN027 BKN031 08/03 Q1020 NOSIG WNW (300°) 8.1mph 8°C 3°C
14/01/19 07:50 EGLL 140750Z AUTO 29007KT 9999 BKN030 08/03 Q1019 NOSIG WNW (290°) 8.1mph 8°C 3°C
14/01/19 06:50 EGLL 140650Z AUTO 29007KT 9999 NCD 08/03 Q1018 NOSIG WNW (290°) 8.1mph 8°C 3°C
14/01/19 06:20 EGLL 140620Z AUTO 30011KT 9999 NCD 08/02 Q1018 NOSIG WNW (300°) 12.7mph 8°C 2°C
14/01/19 05:50 EGLL 140550Z AUTO 31010KT 9999 NCD 08/02 Q1018 NW (310°) 11.5mph 8°C 2°C
14/01/19 05:20 EGLL 140520Z AUTO 31009KT 9999 NCD 08/02 Q1017 NW (310°) 10.4mph 8°C 2°C
14/01/19 04:50 EGLL 140450Z AUTO 30010KT 9999 BKN041 08/02 Q1017 NOSIG WNW (300°) 11.5mph 8°C 2°C
14/01/19 04:20 EGLL 140420Z AUTO 30008KT 280V340 9999 BKN038 08/02 Q1017 NOSIG WNW (300°) 9.2mph 8°C 2°C
14/01/19 03:50 EGLL 140350Z AUTO 29009KT 9999 BKN036 08/02 Q1017 NOSIG WNW (290°) 10.4mph 8°C 2°C
14/01/19 03:20 EGLL 140320Z AUTO 30010KT 9999 SCT038 08/02 Q1017 NOSIG WNW (300°) 11.5mph 8°C 2°C
14/01/19 02:50 EGLL 140250Z AUTO 31010KT 9999 NCD 08/02 Q1016 NOSIG NW (310°) 11.5mph 8°C 2°C
14/01/19 02:20 EGLL 140220Z AUTO 30010KT 9999 SCT039 08/02 Q1016 NOSIG WNW (300°) 11.5mph 8°C 2°C
14/01/19 01:50 EGLL 140150Z AUTO 30009KT 9999 FEW043 08/02 Q1016 NOSIG WNW (300°) 10.4mph 8°C 2°C
14/01/19 01:20 EGLL 140120Z AUTO 30011KT 9999 NCD 08/02 Q1015 NOSIG WNW (300°) 12.7mph 8°C 2°C
14/01/19 00:50 EGLL 140050Z AUTO 30012G23KT 9999 SCT037 BKN043 09/02 Q1015 NOSIG WNW (300°) 13.8mph 26.5mph 9°C 2°C
14/01/19 00:20 EGLL 140020Z AUTO 30010KT 9999 SCT048 09/02 Q1015 NOSIG WNW (300°) 11.5mph 9°C 2°C
13/01/19 23:50 EGLL 132350Z AUTO 30011KT 9999 BKN047 09/02 Q1015 NOSIG WNW (300°) 12.7mph 9°C 2°C
13/01/19 23:20 EGLL 132320Z AUTO 30012KT 260V340 9999 FEW042 10/02 Q1015 NOSIG WNW (300°) 13.8mph 10°C 2°C
13/01/19 22:50 EGLL 132250Z AUTO 31007KT 280V340 9999 BKN038 OVC046 09/04 Q1015 NW (310°) 8.1mph 9°C 4°C
13/01/19 22:20 EGLL 132220Z AUTO 32010KT 9999 BKN036 BKN047 10/03 Q1014 NOSIG NW (320°) 11.5mph 10°C 3°C
13/01/19 21:50 EGLL 132150Z AUTO 32007KT 290V350 9999 NCD 10/02 Q1014 NOSIG NW (320°) 8.1mph 10°C 2°C
13/01/19 21:20 EGLL 132120Z AUTO 33010KT 300V010 9999 NCD 10/02 Q1014 NOSIG NNW (330°) 11.5mph 10°C 2°C
13/01/19 20:50 EGLL 132050Z AUTO 31010KT 9999 NCD 11/03 Q1013 NOSIG NW (310°) 11.5mph 11°C 3°C
13/01/19 20:20 EGLL 132020Z AUTO 32012G22KT 280V360 9999 NCD 11/04 Q1013 NOSIG NW (320°) 13.8mph 25.3mph 11°C 4°C
13/01/19 19:50 EGLL 131950Z AUTO 31013G24KT 270V340 9999 BKN040 12/05 Q1012 NOSIG NW (310°) 15.0mph 27.6mph 12°C 5°C
13/01/19 19:20 EGLL 131920Z AUTO 29011KT 9999 SCT038 12/06 Q1012 NOSIG WNW (290°) 12.7mph 12°C 6°C
13/01/19 18:50 EGLL 131850Z AUTO 29013KT 9999 OVC048 11/06 Q1012 WNW (290°) 15.0mph 11°C 6°C
13/01/19 18:20 EGLL 131820Z AUTO 28011KT 9999 BKN047 10/07 Q1011 NOSIG W (280°) 12.7mph 10°C 7°C
13/01/19 17:50 EGLL 131750Z AUTO 27014KT 9999 FEW029 BKN046 11/07 Q1011 NOSIG W (270°) 16.1mph 11°C 7°C
13/01/19 17:20 EGLL 131720Z AUTO 27014KT 9999 NCD 11/07 Q1011 W (270°) 16.1mph 11°C 7°C
13/01/19 16:20 EGLL 131620Z AUTO 27017KT 9999 FEW021 BKN034 11/08 Q1011 NOSIG W (270°) 19.6mph 11°C 8°C
13/01/19 15:50 EGLL 131550Z AUTO 27019KT 9999 FEW023 BKN034 BKN042 11/08 Q1012 NOSIG W (270°) 21.9mph 11°C 8°C
13/01/19 15:20 EGLL 131520Z AUTO 27018KT 9999 SCT018 BKN022 BKN033 11/08 Q1012 NOSIG W (270°) 20.7mph 11°C 8°C
13/01/19 14:50 EGLL 131450Z AUTO 26016KT 9999 BKN018 OVC023 11/08 Q1012 NOSIG W (260°) 18.4mph 11°C 8°C
13/01/19 14:20 EGLL 131420Z AUTO 26016KT 9999 OVC019 11/08 Q1012 NOSIG W (260°) 18.4mph 11°C 8°C
13/01/19 13:50 EGLL 131350Z AUTO 27017KT 9999 BKN018 OVC024 11/08 Q1012 W (270°) 19.6mph 11°C 8°C
13/01/19 13:20 EGLL 131320Z AUTO 27019KT 9999 BKN020 12/08 Q1012 NOSIG W (270°) 21.9mph 12°C 8°C
13/01/19 12:50 EGLL 131250Z AUTO 28016KT 9999 SCT021 BKN025 12/08 Q1013 W (280°) 18.4mph 12°C 8°C
13/01/19 12:20 EGLL 131220Z AUTO 28019KT 9999 FEW024 11/07 Q1013 W (280°) 21.9mph 11°C 7°C
13/01/19 11:50 EGLL 131150Z AUTO 28018KT 9999 NCD 11/07 Q1013 W (280°) 20.7mph 11°C 7°C
13/01/19 11:20 EGLL 131120Z AUTO 28017KT 9999 NCD 11/06 Q1014 W (280°) 19.6mph 11°C 6°C
13/01/19 10:50 EGLL 131050Z AUTO 28015KT 9999 NCD 10/06 Q1014 NOSIG W (280°) 17.3mph 10°C 6°C
13/01/19 10:20 EGLL 131020Z AUTO 27015KT 9999 NCD 10/06 Q1014 NOSIG W (270°) 17.3mph 10°C 6°C
13/01/19 09:50 EGLL 130950Z AUTO 26014KT 9999 NCD 10/06 Q1014 W (260°) 16.1mph 10°C 6°C
13/01/19 09:20 EGLL 130920Z AUTO 26012KT 9999 NCD 10/06 Q1015 NOSIG W (260°) 13.8mph 10°C 6°C
13/01/19 08:50 EGLL 130850Z AUTO 26013KT 9999 NCD 10/06 Q1015 NOSIG W (260°) 15.0mph 10°C 6°C
13/01/19 08:20 EGLL 130820Z AUTO 26011KT 9999 NCD 10/07 Q1015 NOSIG W (260°) 12.7mph 10°C 7°C
13/01/19 07:50 EGLL 130750Z AUTO 27012KT 9999 NCD 10/07 Q1015 NOSIG W (270°) 13.8mph 10°C 7°C
13/01/19 07:20 EGLL 130720Z AUTO 26011KT 9999 NCD 10/07 Q1016 TEMPO BKN014 W (260°) 12.7mph 10°C 7°C
13/01/19 06:50 EGLL 130650Z AUTO 27013KT 9999 FEW019 10/08 Q1015 TEMPO BKN014 W (270°) 15.0mph 10°C 8°C
13/01/19 06:20 EGLL 130620Z AUTO 26013KT 9999 FEW020 10/08 Q1015 TEMPO BKN014 W (260°) 15.0mph 10°C 8°C
13/01/19 05:50 EGLL 130550Z AUTO 26012KT 9999 BKN017 10/08 Q1015 TEMPO BKN014 W (260°) 13.8mph 10°C 8°C
13/01/19 05:20 EGLL 130520Z AUTO 26013KT 9999 SCT019 10/07 Q1016 TEMPO BKN014 W (260°) 15.0mph 10°C 7°C
13/01/19 04:50 EGLL 130450Z AUTO 27012KT 9999 BKN020 10/07 Q1016 TEMPO BKN014 W (270°) 13.8mph 10°C 7°C
13/01/19 04:20 EGLL 130420Z AUTO 27010KT 9999 BKN020 10/07 Q1017 TEMPO BKN014 W (270°) 11.5mph 10°C 7°C
13/01/19 03:50 EGLL 130350Z AUTO 26010KT 9999 SCT022 BKN026 10/07 Q1017 TEMPO BKN014 W (260°) 11.5mph 10°C 7°C
13/01/19 03:20 EGLL 130320Z AUTO 26010KT 9999 SCT023 10/07 Q1017 NOSIG W (260°) 11.5mph 10°C 7°C
13/01/19 02:50 EGLL 130250Z AUTO 28013KT 9999 NCD 10/07 Q1017 NOSIG W (280°) 15.0mph 10°C 7°C
13/01/19 02:20 EGLL 130220Z AUTO 28014KT 9999 NCD 11/07 Q1017 NOSIG W (280°) 16.1mph 11°C 7°C
13/01/19 01:50 EGLL 130150Z AUTO 29011KT 9999 NCD 10/07 Q1018 NOSIG WNW (290°) 12.7mph 10°C 7°C
13/01/19 01:20 EGLL 130120Z AUTO 28010KT 9999 SCT025 10/07 Q1018 W (280°) 11.5mph 10°C 7°C
13/01/19 00:50 EGLL 130050Z AUTO 29011KT 9999 FEW028 10/07 Q1018 NOSIG WNW (290°) 12.7mph 10°C 7°C